sensor_id;sensor_type;location;lat;lon;timestamp;pressure;altitude;pressure_sealevel;temperature;humidity
35758;BME280;21879;50.110;18.900;2023-01-29T00:08:26;99569.48;;;0.46;65.00
35758;BME280;21879;50.110;18.900;2023-01-29T00:18:53;99572.41;;;0.42;64.98
35758;BME280;21879;50.110;18.900;2023-01-29T00:29:21;99581.12;;;0.38;65.31
35758;BME280;21879;50.110;18.900;2023-01-29T00:39:48;99597.34;;;0.37;65.03
35758;BME280;21879;50.110;18.900;2023-01-29T00:50:16;99597.74;;;0.42;65.39
35758;BME280;21879;50.110;18.900;2023-01-29T01:00:44;99604.98;;;0.40;64.97
35758;BME280;21879;50.110;18.900;2023-01-29T01:11:12;99611.88;;;0.22;64.61
35758;BME280;21879;50.110;18.900;2023-01-29T01:21:40;99616.38;;;0.16;64.76
35758;BME280;21879;50.110;18.900;2023-01-29T01:32:13;99624.15;;;0.14;64.67
35758;BME280;21879;50.110;18.900;2023-01-29T01:42:41;99612.16;;;0.14;65.18
35758;BME280;21879;50.110;18.900;2023-01-29T01:53:10;99608.21;;;0.21;64.92
35758;BME280;21879;50.110;18.900;2023-01-29T02:03:42;99604.02;;;0.08;64.28
35758;BME280;21879;50.110;18.900;2023-01-29T02:14:30;99592.71;;;0.07;64.01
35758;BME280;21879;50.110;18.900;2023-01-29T02:35:57;99575.73;;;-0.16;62.81
35758;BME280;21879;50.110;18.900;2023-01-29T02:46:31;99560.86;;;-0.30;62.55
35758;BME280;21879;50.110;18.900;2023-01-29T02:57:06;99561.73;;;-0.30;62.22
35758;BME280;21879;50.110;18.900;2023-01-29T03:07:44;99585.86;;;-0.37;61.20
35758;BME280;21879;50.110;18.900;2023-01-29T03:18:17;99595.23;;;-0.51;60.12
35758;BME280;21879;50.110;18.900;2023-01-29T03:28:51;99598.05;;;-0.63;60.20
35758;BME280;21879;50.110;18.900;2023-01-29T03:39:37;99605.63;;;-0.48;60.27
35758;BME280;21879;50.110;18.900;2023-01-29T03:50:08;99603.00;;;-0.28;60.46
35758;BME280;21879;50.110;18.900;2023-01-29T04:00:41;99591.77;;;-0.17;59.87
35758;BME280;21879;50.110;18.900;2023-01-29T04:11:13;99573.59;;;-0.03;60.04
35758;BME280;21879;50.110;18.900;2023-01-29T04:21:42;99570.20;;;-0.03;59.37
35758;BME280;21879;50.110;18.900;2023-01-29T04:32:16;99555.16;;;0.09;59.38
35758;BME280;21879;50.110;18.900;2023-01-29T04:42:52;99531.65;;;0.41;59.90
35758;BME280;21879;50.110;18.900;2023-01-29T04:53:27;99509.15;;;0.55;59.09
35758;BME280;21879;50.110;18.900;2023-01-29T05:04:03;99501.36;;;0.45;58.36
35758;BME280;21879;50.110;18.900;2023-01-29T05:14:32;99501.75;;;0.46;58.31
35758;BME280;21879;50.110;18.900;2023-01-29T05:25:00;99508.17;;;0.80;58.55
35758;BME280;21879;50.110;18.900;2023-01-29T05:35:28;99512.08;;;1.04;58.29
35758;BME280;21879;50.110;18.900;2023-01-29T05:45:57;99518.77;;;1.04;57.49
35758;BME280;21879;50.110;18.900;2023-01-29T05:56:25;99506.88;;;0.78;56.96
35758;BME280;21879;50.110;18.900;2023-01-29T06:06:53;99522.33;;;0.63;57.24
35758;BME280;21879;50.110;18.900;2023-01-29T06:17:20;99528.98;;;0.62;57.11
35758;BME280;21879;50.110;18.900;2023-01-29T06:27:50;99537.23;;;0.36;56.84
35758;BME280;21879;50.110;18.900;2023-01-29T06:38:18;99547.52;;;0.21;57.33
35758;BME280;21879;50.110;18.900;2023-01-29T06:48:45;99548.98;;;0.31;57.55
35758;BME280;21879;50.110;18.900;2023-01-29T06:59:13;99540.95;;;0.27;57.36
35758;BME280;21879;50.110;18.900;2023-01-29T07:09:42;99541.15;;;0.28;57.80
35758;BME280;21879;50.110;18.900;2023-01-29T07:20:11;99547.73;;;0.45;57.77
35758;BME280;21879;50.110;18.900;2023-01-29T07:30:40;99554.11;;;0.54;57.73
35758;BME280;21879;50.110;18.900;2023-01-29T07:41:08;99564.70;;;0.30;57.56
35758;BME280;21879;50.110;18.900;2023-01-29T07:51:36;99570.43;;;0.17;58.22
35758;BME280;21879;50.110;18.900;2023-01-29T08:02:03;99572.20;;;0.11;59.63
35758;BME280;21879;50.110;18.900;2023-01-29T08:12:31;99587.86;;;0.06;60.55
35758;BME280;21879;50.110;18.900;2023-01-29T08:23:03;99604.90;;;-0.03;60.80
35758;BME280;21879;50.110;18.900;2023-01-29T08:33:31;99614.24;;;-0.11;60.91
35758;BME280;21879;50.110;18.900;2023-01-29T08:44:04;99607.98;;;-0.13;61.14
35758;BME280;21879;50.110;18.900;2023-01-29T08:54:32;99615.84;;;-0.21;60.92
35758;BME280;21879;50.110;18.900;2023-01-29T09:05:00;99617.08;;;-0.31;61.13
35758;BME280;21879;50.110;18.900;2023-01-29T09:15:27;99612.73;;;-0.35;61.25
35758;BME280;21879;50.110;18.900;2023-01-29T09:25:55;99596.04;;;-0.31;61.32
35758;BME280;21879;50.110;18.900;2023-01-29T09:36:23;99580.56;;;-0.22;61.28
35758;BME280;21879;50.110;18.900;2023-01-29T09:46:52;99581.23;;;-0.08;61.26
35758;BME280;21879;50.110;18.900;2023-01-29T09:57:26;99593.19;;;-0.08;60.88
35758;BME280;21879;50.110;18.900;2023-01-29T10:08:22;99570.95;;;-0.09;61.10
35758;BME280;21879;50.110;18.900;2023-01-29T10:19:16;99547.23;;;-0.15;60.66
35758;BME280;21879;50.110;18.900;2023-01-29T10:29:46;99530.47;;;-0.15;60.69
35758;BME280;21879;50.110;18.900;2023-01-29T10:40:21;99505.70;;;-0.04;60.45
35758;BME280;21879;50.110;18.900;2023-01-29T10:50:53;99474.31;;;-0.06;59.86
35758;BME280;21879;50.110;18.900;2023-01-29T11:01:22;99460.42;;;-0.07;59.57
35758;BME280;21879;50.110;18.900;2023-01-29T11:11:55;99442.73;;;-0.17;59.51
35758;BME280;21879;50.110;18.900;2023-01-29T11:22:25;99427.67;;;-0.24;59.42
35758;BME280;21879;50.110;18.900;2023-01-29T11:32:54;99403.94;;;-0.28;59.06
35758;BME280;21879;50.110;18.900;2023-01-29T11:43:29;99391.14;;;-0.19;58.89
35758;BME280;21879;50.110;18.900;2023-01-29T11:53:58;99385.35;;;-0.12;59.04
35758;BME280;21879;50.110;18.900;2023-01-29T12:04:27;99379.66;;;0.07;58.76
35758;BME280;21879;50.110;18.900;2023-01-29T12:15:09;99383.30;;;0.04;57.84
35758;BME280;21879;50.110;18.900;2023-01-29T12:25:46;99373.71;;;0.04;57.46
35758;BME280;21879;50.110;18.900;2023-01-29T12:36:20;99366.77;;;0.05;57.37
35758;BME280;21879;50.110;18.900;2023-01-29T12:46:53;99354.67;;;0.03;57.35
35758;BME280;21879;50.110;18.900;2023-01-29T12:57:24;99337.95;;;0.04;57.60
35758;BME280;21879;50.110;18.900;2023-01-29T13:08:00;99329.55;;;0.11;57.59
35758;BME280;21879;50.110;18.900;2023-01-29T13:18:39;99323.25;;;0.19;57.31
35758;BME280;21879;50.110;18.900;2023-01-29T13:29:21;99310.83;;;0.21;56.82
35758;BME280;21879;50.110;18.900;2023-01-29T13:39:50;99309.07;;;0.20;56.41
35758;BME280;21879;50.110;18.900;2023-01-29T13:50:23;99303.70;;;0.22;56.51
35758;BME280;21879;50.110;18.900;2023-01-29T14:00:53;99288.27;;;0.39;56.99
35758;BME280;21879;50.110;18.900;2023-01-29T14:11:35;99270.86;;;0.44;56.41
35758;BME280;21879;50.110;18.900;2023-01-29T14:22:03;99266.73;;;0.35;56.76
35758;BME280;21879;50.110;18.900;2023-01-29T14:32:31;99265.20;;;0.31;56.33
35758;BME280;21879;50.110;18.900;2023-01-29T14:43:01;99268.89;;;0.20;56.64
35758;BME280;21879;50.110;18.900;2023-01-29T14:53:42;99263.30;;;0.17;56.86
35758;BME280;21879;50.110;18.900;2023-01-29T15:04:16;99264.68;;;-0.03;57.32
35758;BME280;21879;50.110;18.900;2023-01-29T15:14:56;99260.65;;;-0.13;57.59
35758;BME280;21879;50.110;18.900;2023-01-29T15:25:28;99269.39;;;-0.09;57.74
35758;BME280;21879;50.110;18.900;2023-01-29T15:36:00;99253.80;;;-0.02;57.72
35758;BME280;21879;50.110;18.900;2023-01-29T15:46:35;99250.70;;;-0.06;57.68
35758;BME280;21879;50.110;18.900;2023-01-29T15:57:06;99244.06;;;-0.06;57.67
35758;BME280;21879;50.110;18.900;2023-01-29T16:07:44;99221.35;;;-0.05;57.55
35758;BME280;21879;50.110;18.900;2023-01-29T16:18:22;99219.23;;;-0.19;57.73
35758;BME280;21879;50.110;18.900;2023-01-29T16:28:50;99223.65;;;0.05;57.97
35758;BME280;21879;50.110;18.900;2023-01-29T16:39:20;99214.16;;;0.08;57.59
35758;BME280;21879;50.110;18.900;2023-01-29T16:49:51;99207.54;;;-0.21;57.53
35758;BME280;21879;50.110;18.900;2023-01-29T17:00:23;99214.29;;;-0.35;57.95
35758;BME280;21879;50.110;18.900;2023-01-29T17:10:51;99217.90;;;-0.05;58.45
35758;BME280;21879;50.110;18.900;2023-01-29T17:21:19;99217.54;;;-0.06;57.89
35758;BME280;21879;50.110;18.900;2023-01-29T17:31:47;99211.91;;;-0.31;57.80
35758;BME280;21879;50.110;18.900;2023-01-29T17:42:15;99203.49;;;-0.64;58.17
35758;BME280;21879;50.110;18.900;2023-01-29T17:52:42;99196.57;;;-0.78;58.65
35758;BME280;21879;50.110;18.900;2023-01-29T18:03:10;99178.69;;;-0.81;59.13
35758;BME280;21879;50.110;18.900;2023-01-29T18:13:38;99173.54;;;-0.82;59.36
35758;BME280;21879;50.110;18.900;2023-01-29T18:24:07;99181.88;;;-0.79;59.48
35758;BME280;21879;50.110;18.900;2023-01-29T18:34:35;99177.44;;;-0.79;59.60
35758;BME280;21879;50.110;18.900;2023-01-29T18:45:03;99161.88;;;-0.83;59.64
35758;BME280;21879;50.110;18.900;2023-01-29T18:55:31;99154.95;;;-0.93;59.90
35758;BME280;21879;50.110;18.900;2023-01-29T19:06:02;99158.77;;;-0.96;60.26
35758;BME280;21879;50.110;18.900;2023-01-29T19:16:29;99148.55;;;-0.91;60.25
35758;BME280;21879;50.110;18.900;2023-01-29T19:26:57;99130.45;;;-0.91;60.35
35758;BME280;21879;50.110;18.900;2023-01-29T19:37:24;99118.64;;;-0.97;60.49
35758;BME280;21879;50.110;18.900;2023-01-29T19:47:52;99120.70;;;-0.96;60.74
35758;BME280;21879;50.110;18.900;2023-01-29T19:58:19;99119.16;;;-0.96;60.83
35758;BME280;21879;50.110;18.900;2023-01-29T20:08:46;99108.40;;;-1.04;60.83
35758;BME280;21879;50.110;18.900;2023-01-29T20:19:14;99098.23;;;-1.11;60.86
35758;BME280;21879;50.110;18.900;2023-01-29T20:29:41;99093.96;;;-1.11;61.06
35758;BME280;21879;50.110;18.900;2023-01-29T20:40:12;99094.00;;;-1.10;61.29
35758;BME280;21879;50.110;18.900;2023-01-29T20:50:41;99090.08;;;-1.09;61.38
35758;BME280;21879;50.110;18.900;2023-01-29T21:01:09;99078.14;;;-1.06;61.41
35758;BME280;21879;50.110;18.900;2023-01-29T21:11:37;99073.16;;;-0.98;61.51
35758;BME280;21879;50.110;18.900;2023-01-29T21:22:05;99060.48;;;-0.95;61.40
35758;BME280;21879;50.110;18.900;2023-01-29T21:32:33;99033.01;;;-0.95;61.38
35758;BME280;21879;50.110;18.900;2023-01-29T21:43:00;99020.21;;;-1.07;61.55
35758;BME280;21879;50.110;18.900;2023-01-29T21:53:41;99015.71;;;-1.17;61.44
35758;BME280;21879;50.110;18.900;2023-01-29T22:04:08;99001.55;;;-1.25;61.37
35758;BME280;21879;50.110;18.900;2023-01-29T22:14:36;98986.27;;;-1.24;61.36
35758;BME280;21879;50.110;18.900;2023-01-29T22:25:05;98974.17;;;-1.19;61.27
35758;BME280;21879;50.110;18.900;2023-01-29T22:35:31;98953.46;;;-1.08;61.22
35758;BME280;21879;50.110;18.900;2023-01-29T22:45:58;98927.90;;;-1.20;61.09
35758;BME280;21879;50.110;18.900;2023-01-29T22:56:27;98917.58;;;-1.35;61.08
35758;BME280;21879;50.110;18.900;2023-01-29T23:06:54;98906.28;;;-1.31;61.19
35758;BME280;21879;50.110;18.900;2023-01-29T23:17:22;98880.38;;;-1.30;60.91
35758;BME280;21879;50.110;18.900;2023-01-29T23:27:50;98873.85;;;-1.32;60.93
35758;BME280;21879;50.110;18.900;2023-01-29T23:38:17;98854.51;;;-1.25;60.97
35758;BME280;21879;50.110;18.900;2023-01-29T23:48:45;98825.15;;;-1.25;60.96
35758;BME280;21879;50.110;18.900;2023-01-29T23:59:13;98803.83;;;-1.38;60.86
